Time;durP1;ratioP1;P1;durP2;ratioP2;P2;SDS_P1;SDS_P2;PMS_P1;PMS_P2;Temp;Humidity;BMP_temperature;BMP_pressure;BME280_temperature;BME280_humidity;BME280_pressure;Samples;Min_cycle;Max_cycle;Signal;HPM_P1;HPM_P2
2022/06/08 00:02:04;;;;;;;1.70;1.60;;;;;;;17.22;57.73;100360.47;4983519;28;20029;-23
2022/06/08 00:04:29;;;;;;;1.40;1.30;;;;;;;17.19;58.01;100363.25;4972328;28;20109;-23
2022/06/08 00:06:54;;;;;;;1.38;1.27;;;;;;;17.16;57.77;100356.25;4983523;28;20026;-23
2022/06/08 00:09:20;;;;;;;1.40;1.30;;;;;;;17.16;57.83;100355.38;4982961;28;20026;-23
2022/06/08 00:11:45;;;;;;;1.33;1.20;;;;;;;17.17;58.09;100358.00;4980295;28;20026;-23
2022/06/08 00:14:12;;;;;;;1.00;1.00;;;;;;;17.18;57.79;100349.06;4987941;28;20026;-23
2022/06/08 00:16:37;;;;;;;1.58;1.48;;;;;;;17.15;57.75;100349.22;4985425;28;20030;-23
2022/06/08 00:19:02;;;;;;;1.30;1.20;;;;;;;17.09;58.09;100345.91;4993438;28;20393;-23
2022/06/08 00:21:28;;;;;;;1.98;1.50;;;;;;;17.11;57.75;100344.06;4986723;28;20073;-23
2022/06/08 00:23:53;;;;;;;1.90;1.27;;;;;;;17.13;58.09;100350.19;4986682;28;20018;-23
2022/06/08 00:26:19;;;;;;;1.30;1.20;;;;;;;17.13;58.56;100344.84;4981842;28;20511;-23
2022/06/08 00:28:44;;;;;;;1.45;1.35;;;;;;;17.08;57.63;100337.06;4983493;28;20023;-23
2022/06/08 00:31:10;;;;;;;1.70;1.60;;;;;;;17.10;57.79;100343.19;4985880;28;20041;-23
2022/06/08 00:33:36;;;;;;;1.35;1.25;;;;;;;17.09;58.03;100343.25;4988121;28;20038;-23
2022/06/08 00:36:01;;;;;;;1.65;1.55;;;;;;;17.02;58.25;100342.63;4990305;28;20030;-23
2022/06/08 00:38:26;;;;;;;1.40;1.30;;;;;;;17.02;58.00;100343.50;4984610;28;20030;-23
2022/06/08 00:41:12;;;;;;;1.55;1.17;;;;;;;17.02;57.69;100343.50;4989876;28;20122;-23
2022/06/08 00:43:38;;;;;;;1.50;1.40;;;;;;;17.01;57.92;100339.06;4985554;28;20034;-22
2022/06/08 00:46:05;;;;;;;1.50;1.40;;;;;;;17.00;58.04;100334.69;4959105;28;20449;-23
2022/06/08 00:48:35;;;;;;;1.52;1.20;;;;;;;17.01;57.76;100330.22;4992129;28;20018;-23
2022/06/08 00:51:00;;;;;;;1.90;1.60;;;;;;;17.01;57.50;100333.75;4985154;28;20085;-23
2022/06/08 00:53:31;;;;;;;1.38;1.27;;;;;;;16.98;57.83;100333.91;4977946;28;20544;-23
2022/06/08 00:55:57;;;;;;;;;;;;;;;16.99;57.67;100332.09;4971448;28;20093;-23
2022/06/08 00:58:25;;;;;;;1.10;1.10;;;;;;;16.98;57.76;100328.56;4975023;28;20334;-23
2022/06/08 01:00:52;;;;;;;1.83;1.27;;;;;;;16.96;57.43;100325.09;4969579;28;20031;-23
2022/06/08 01:03:17;;;;;;;1.30;1.20;;;;;;;16.99;57.50;100338.28;4969498;28;20026;-23
2022/06/08 01:05:46;;;;;;;1.55;1.45;;;;;;;16.97;57.69;100329.47;4981158;28;20404;-23
2022/06/08 01:08:20;;;;;;;3.40;1.60;;;;;;;16.95;57.63;100336.69;4970804;28;20022;-23
2022/06/08 01:10:47;;;;;;;1.58;1.48;;;;;;;16.93;58.00;100328.75;4985152;28;20053;-23
2022/06/08 01:13:13;;;;;;;1.25;1.25;;;;;;;16.92;57.86;100321.69;4983749;28;20027;-23
2022/06/08 01:15:39;;;;;;;1.50;1.40;;;;;;;16.92;57.68;100321.69;4982917;28;20040;-23
2022/06/08 01:18:05;;;;;;;1.30;1.20;;;;;;;16.91;57.56;100319.09;4975553;28;20027;-23
2022/06/08 01:20:31;;;;;;;1.50;1.40;;;;;;;16.89;57.99;100319.16;4982585;28;20072;-23
2022/06/08 01:22:56;;;;;;;3.50;1.52;;;;;;;16.89;57.63;100321.81;4986734;28;20052;-22
2022/06/08 01:25:22;;;;;;;2.33;1.35;;;;;;;16.87;57.64;100322.81;4989435;28;20025;-23
2022/06/08 01:28:14;;;;;;;1.35;1.25;;;;;;;16.87;57.68;100320.16;4971631;28;20041;-23
2022/06/08 01:30:51;;;;;;;1.25;1.15;;;;;;;16.86;57.98;100316.63;4988232;28;20084;-23
2022/06/08 01:33:32;;;;;;;2.22;1.35;;;;;;;16.84;57.99;100312.28;4987226;28;20034;-23
2022/06/08 01:36:15;;;;;;;1.30;1.20;;;;;;;16.82;57.97;100324.78;4981793;28;20030;-23
2022/06/08 01:39:05;;;;;;;1.40;1.30;;;;;;;16.82;57.94;100307.03;4983711;28;20066;-23
2022/06/08 01:41:56;;;;;;;3.30;1.50;;;;;;;16.79;58.37;100304.47;4982363;28;20057;-21
2022/06/08 01:44:27;;;;;;;1.55;1.45;;;;;;;16.83;57.74;100305.19;4984233;28;20204;-22
2022/06/08 01:47:08;;;;;;;1.25;1.17;;;;;;;16.82;57.64;100301.69;4986277;28;20436;-22
2022/06/08 01:49:48;;;;;;;1.50;1.40;;;;;;;16.77;57.35;100295.66;4990456;28;20030;-22
2022/06/08 01:52:44;;;;;;;1.43;1.37;;;;;;;16.81;57.68;100291.97;4985385;28;20034;-22
2022/06/08 01:55:18;;;;;;;1.65;1.30;;;;;;;16.76;57.70;100288.63;4962829;28;20038;-22
2022/06/08 01:57:50;;;;;;;1.77;1.50;;;;;;;16.76;57.62;100289.50;4971734;28;20484;-22
2022/06/08 02:00:20;;;;;;;1.33;1.25;;;;;;;16.72;57.89;100293.22;4965271;28;20125;-22
2022/06/08 02:03:00;;;;;;;2.40;1.77;;;;;;;16.72;58.16;100287.91;4974845;28;20182;-21
2022/06/08 02:05:50;;;;;;;1.40;1.30;;;;;;;16.72;57.88;100287.91;4987661;28;20029;-22
2022/06/08 02:08:33;;;;;;;1.58;1.48;;;;;;;16.70;58.19;100279.09;4989076;28;20081;-21
2022/06/08 02:11:16;;;;;;;1.45;1.35;;;;;;;16.70;57.97;100281.75;4986619;28;20028;-22
2022/06/08 02:13:47;;;;;;;1.77;1.58;;;;;;;16.66;57.65;100285.47;4969252;28;20061;-22
2022/06/08 02:16:50;;;;;;;1.88;1.30;;;;;;;16.67;58.19;100292.53;4979809;28;20169;-22
2022/06/08 02:19:21;;;;;;;1.40;1.08;;;;;;;16.68;58.04;100291.63;4979742;28;20038;-22
2022/06/08 02:22:10;;;;;;;1.20;1.20;;;;;;;16.67;57.94;100285.41;4974562;28;20473;-22
2022/06/08 02:24:42;;;;;;;1.23;1.15;;;;;;;16.66;58.15;100293.47;4970449;28;20028;-22
2022/06/08 02:27:20;;;;;;;1.42;1.33;;;;;;;16.65;58.34;100281.97;4972535;28;20090;-22
2022/06/08 02:29:51;;;;;;;2.65;1.30;;;;;;;16.68;58.08;100288.94;4988917;28;20030;-22
2022/06/08 02:35:10;;;;;;;;;;;;;;;16.65;57.97;100284.63;4981676;28;19969;-22
2022/06/08 02:37:37;;;;;;;1.15;1.10;;;;;;;16.63;57.79;100290.91;4967326;28;19992;-21
2022/06/08 02:40:03;;;;;;;2.88;1.20;;;;;;;16.64;58.39;100274.88;4978965;28;20189;-22
2022/06/08 02:42:52;;;;;;;1.27;1.20;;;;;;;16.59;58.31;100274.22;4969983;28;20526;-22
2022/06/08 02:45:21;;;;;;;1.20;1.10;;;;;;;16.55;58.25;100276.13;4972039;28;20033;-22
2022/06/08 02:47:48;;;;;;;1.30;1.30;;;;;;;16.57;58.09;100283.19;4983719;28;20033;-22
2022/06/08 02:50:17;;;;;;;1.27;1.17;;;;;;;16.54;57.99;100289.53;4971555;28;20478;-22
2022/06/08 02:52:45;;;;;;;1.10;1.10;;;;;;;16.52;58.04;100281.59;4969384;28;20424;-22
2022/06/08 02:55:27;;;;;;;1.20;1.20;;;;;;;16.49;58.36;100281.72;4988229;28;20397;-21
2022/06/08 02:57:56;;;;;;;1.20;1.10;;;;;;;16.52;58.25;100291.34;4972006;28;20302;-22
2022/06/08 03:00:28;;;;;;;1.08;1.08;;;;;;;16.45;58.18;100288.09;4966553;28;20404;-22
2022/06/08 03:03:00;;;;;;;1.42;1.33;;;;;;;16.44;58.29;100294.31;4967940;28;20461;-22
2022/06/08 03:05:30;;;;;;;1.45;1.35;;;;;;;16.42;58.50;100280.22;4984203;28;20036;-22
2022/06/08 03:08:09;;;;;;;1.23;1.17;;;;;;;16.40;58.23;100276.75;4988741;28;20065;-22
2022/06/08 03:10:36;;;;;;;1.30;1.20;;;;;;;16.36;58.84;100275.13;4955236;28;20106;-22
2022/06/08 03:13:20;;;;;;;1.35;1.10;;;;;;;16.35;58.56;100290.25;4982153;28;20122;-21
2022/06/08 03:15:53;;;;;;;1.27;1.20;;;;;;;16.33;58.61;100280.56;4967923;28;20054;-22
2022/06/08 03:18:18;;;;;;;1.00;1.00;;;;;;;16.30;59.06;100276.25;4984951;28;20027;-22
2022/06/08 03:20:44;;;;;;;1.40;1.30;;;;;;;16.31;58.60;100283.31;4985665;28;20089;-21
2022/06/08 03:23:09;;;;;;;1.00;1.00;;;;;;;16.27;58.50;100281.69;4967672;28;20077;-22
2022/06/08 03:25:35;;;;;;;1.10;1.10;;;;;;;16.28;58.88;100302.06;4982583;28;20022;-22
2022/06/08 03:28:01;;;;;;;1.10;1.10;;;;;;;16.23;58.87;100296.91;4989490;28;20037;-21
2022/06/08 03:30:26;;;;;;;1.40;1.35;;;;;;;16.22;58.55;100299.63;4984541;28;20026;-22
2022/06/08 03:32:51;;;;;;;2.10;1.38;;;;;;;16.15;59.19;100283.88;4978847;28;20038;-22
2022/06/08 03:35:17;;;;;;;1.33;1.20;;;;;;;16.15;58.88;100289.22;4982252;28;20377;-22
2022/06/08 03:37:42;;;;;;;1.20;1.20;;;;;;;16.14;59.10;100286.63;4968917;28;20393;-22
2022/06/08 03:40:08;;;;;;;1.73;1.35;;;;;;;16.16;58.86;100287.44;4965940;28;20591;-22
2022/06/08 03:42:34;;;;;;;1.42;1.33;;;;;;;16.16;58.90;100285.66;4976243;28;20381;-22
2022/06/08 03:45:00;;;;;;;1.15;1.05;;;;;;;16.17;59.40;100291.81;4985625;28;20068;-22
2022/06/08 03:47:28;;;;;;;1.40;1.30;;;;;;;16.14;58.82;100287.47;4974951;28;20452;-22
2022/06/08 03:49:56;;;;;;;1.40;1.30;;;;;;;16.13;59.02;100287.53;4949883;28;20077;-22
2022/06/08 03:52:27;;;;;;;1.40;1.30;;;;;;;16.09;59.08;100289.47;4976103;28;20429;-22
2022/06/08 03:54:57;;;;;;;1.35;1.25;;;;;;;16.09;59.12;100299.22;4978902;28;20441;-22
2022/06/08 03:57:22;;;;;;;1.35;1.25;;;;;;;16.08;59.99;100290.41;4973314;28;20409;-22
2022/06/08 03:59:49;;;;;;;1.33;1.23;;;;;;;16.03;60.48;100279.03;4986771;28;20034;-22
2022/06/08 04:02:15;;;;;;;1.50;1.40;;;;;;;16.06;60.33;100276.28;4987721;28;20548;-22
2022/06/08 04:04:41;;;;;;;1.90;1.23;;;;;;;16.06;60.81;100286.03;4970426;28;20038;-22
2022/06/08 04:07:08;;;;;;;1.30;1.20;;;;;;;16.04;60.87;100288.75;4983446;28;20034;-21
2022/06/08 04:09:33;;;;;;;1.50;1.40;;;;;;;16.01;61.06;100287.09;4983426;28;20030;-22
2022/06/08 04:11:59;;;;;;;1.48;1.27;;;;;;;16.02;60.50;100283.53;4983113;28;20452;-21
2022/06/08 04:14:24;;;;;;;1.63;1.25;;;;;;;16.06;60.39;100289.56;4976035;28;20038;-21
2022/06/08 04:16:51;;;;;;;1.35;1.30;;;;;;;16.07;60.80;100279.81;4976515;28;20041;-22
2022/06/08 04:19:17;;;;;;;1.50;1.40;;;;;;;16.02;60.57;100288.84;4978676;28;20492;-21
2022/06/08 04:21:43;;;;;;;1.80;1.40;;;;;;;16.08;60.23;100297.50;4977904;28;20042;-21
2022/06/08 04:24:10;;;;;;;1.50;1.40;;;;;;;16.12;60.26;100288.47;4978267;28;20045;-21
2022/06/08 04:26:36;;;;;;;1.60;1.50;;;;;;;16.12;60.36;100288.47;4969068;28;20362;-21
2022/06/08 04:29:03;;;;;;;1.55;1.20;;;;;;;16.15;60.49;100288.34;4971964;28;20389;-22
2022/06/08 04:31:32;;;;;;;1.67;1.58;;;;;;;16.16;60.66;100285.66;4976997;28;20059;-21
2022/06/08 04:33:58;;;;;;;1.60;1.50;;;;;;;16.21;60.74;100293.41;4966296;28;20026;-21
2022/06/08 04:36:23;;;;;;;1.40;1.33;;;;;;;16.23;60.58;100288.94;4983091;28;20022;-21
2022/06/08 04:38:49;;;;;;;1.63;1.52;;;;;;;16.27;60.44;100289.66;4982462;28;20035;-21
2022/06/08 04:41:14;;;;;;;1.40;1.30;;;;;;;16.31;60.79;100293.09;4975758;28;20141;-21
2022/06/08 04:43:40;;;;;;;2.33;1.40;;;;;;;16.34;61.15;100293.81;4970528;28;20451;-21
2022/06/08 04:46:06;;;;;;;1.52;1.40;;;;;;;16.36;60.84;100293.75;4964683;28;20062;-21
2022/06/08 04:48:31;;;;;;;1.60;1.50;;;;;;;16.39;61.67;100286.53;4983514;28;20037;-22
2022/06/08 04:50:56;;;;;;;1.40;1.30;;;;;;;16.44;61.63;100294.31;4979127;28;20757;-22
2022/06/08 04:53:22;;;;;;;1.40;1.30;;;;;;;16.50;62.45;100296.75;4982500;28;20096;-21
2022/06/08 04:55:47;;;;;;;1.98;1.50;;;;;;;16.57;62.85;100291.19;4979348;28;20026;-22
2022/06/08 04:58:12;;;;;;;1.80;1.65;;;;;;;16.61;63.19;100290.13;4979170;28;20408;-21
2022/06/08 05:00:38;;;;;;;1.58;1.48;;;;;;;16.68;63.64;100286.28;4981577;28;20027;-22
2022/06/08 05:03:03;;;;;;;1.60;1.50;;;;;;;16.72;63.48;100293.22;4984622;28;20028;-21
2022/06/08 05:05:39;;;;;;;4.35;1.83;;;;;;;16.82;64.14;100298.16;4984476;28;20034;-22
2022/06/08 05:08:06;;;;;;;3.00;2.03;;;;;;;16.91;65.36;100295.13;4985538;28;20105;-22
2022/06/08 05:10:32;;;;;;;2.65;1.70;;;;;;;16.98;65.50;100293.94;4983712;28;20468;-21
2022/06/08 05:12:59;;;;;;;2.03;1.83;;;;;;;17.05;64.40;100299.88;4979430;28;20027;-21
2022/06/08 05:15:30;;;;;;;1.75;1.65;;;;;;;17.14;65.10;100293.31;4978653;28;20109;-21
2022/06/08 05:17:56;;;;;;;1.95;1.80;;;;;;;17.25;66.11;100299.06;4980207;28;20034;-22
2022/06/08 05:20:22;;;;;;;2.70;1.92;;;;;;;17.30;65.65;100299.72;4982782;28;20026;-22
2022/06/08 05:22:48;;;;;;;3.83;1.85;;;;;;;17.35;65.76;100294.19;4982891;28;20061;-22
2022/06/08 05:25:18;;;;;;;1.40;1.30;;;;;;;17.41;65.48;100295.72;4965880;28;20408;-22
2022/06/08 05:27:44;;;;;;;2.17;1.80;;;;;;;17.50;65.73;100295.28;4983574;28;20023;-22
2022/06/08 05:30:10;;;;;;;1.85;1.75;;;;;;;17.59;65.95;100294.03;4982311;28;20031;-21
2022/06/08 05:32:36;;;;;;;1.95;1.83;;;;;;;17.67;65.95;100291.00;4982629;28;20034;-22
2022/06/08 05:35:01;;;;;;;1.90;1.80;;;;;;;17.74;65.68;100295.13;4980318;28;20456;-22
2022/06/08 05:37:26;;;;;;;1.65;1.55;;;;;;;17.78;64.15;100283.38;4972775;28;20139;-22
2022/06/08 05:39:51;;;;;;;1.67;1.58;;;;;;;17.86;65.10;100291.03;4980709;28;20165;-22
2022/06/08 05:42:17;;;;;;;1.70;1.60;;;;;;;18.00;65.58;100289.56;4967729;28;21272;-22
2022/06/08 05:44:42;;;;;;;2.20;1.63;;;;;;;18.07;65.48;100283.84;4982991;28;20035;-22
2022/06/08 05:47:07;;;;;;;2.38;1.45;;;;;;;18.19;65.51;100281.56;4982122;28;20070;-22
2022/06/08 05:49:34;;;;;;;1.50;1.40;;;;;;;18.23;64.76;100288.50;4973532;28;20084;-22
2022/06/08 05:52:01;;;;;;;1.70;1.60;;;;;;;18.32;64.48;100290.75;4984649;28;20048;-22
2022/06/08 05:54:26;;;;;;;1.52;1.42;;;;;;;18.40;64.13;100285.00;4985619;28;20018;-22
2022/06/08 05:56:52;;;;;;;1.40;1.30;;;;;;;18.44;64.04;100297.28;4982782;28;20117;-22
2022/06/08 05:59:17;;;;;;;1.50;1.40;;;;;;;18.51;63.96;100295.16;4981685;28;20031;-22
2022/06/08 06:01:42;;;;;;;1.75;1.65;;;;;;;18.57;63.61;100300.22;4953247;28;20015;-22
2022/06/08 06:04:08;;;;;;;1.58;1.48;;;;;;;18.63;63.68;100291.03;4979130;28;20039;-22
2022/06/08 06:06:34;;;;;;;1.70;1.48;;;;;;;18.68;63.90;100305.03;4980116;28;20153;-22
2022/06/08 06:09:00;;;;;;;1.48;1.38;;;;;;;18.73;63.88;100307.47;4980131;28;20022;-22
2022/06/08 06:11:26;;;;;;;1.60;1.50;;;;;;;18.75;62.97;100307.41;4983501;28;20064;-22
2022/06/08 06:13:51;;;;;;;1.88;1.48;;;;;;;18.80;63.44;100305.34;4968496;28;20061;-22
2022/06/08 06:16:17;;;;;;;2.30;1.67;;;;;;;18.85;63.52;100300.66;4978220;28;20053;-22
2022/06/08 06:18:42;;;;;;;2.20;1.63;;;;;;;18.88;63.70;100294.31;4972281;28;20019;-22
2022/06/08 06:21:14;;;;;;;1.58;1.48;;;;;;;18.90;63.26;100297.78;4978463;28;20026;-22
2022/06/08 06:23:39;;;;;;;1.70;1.60;;;;;;;18.95;63.28;100293.06;4971778;28;20030;-22
2022/06/08 06:26:05;;;;;;;2.08;1.75;;;;;;;19.01;62.88;100290.09;4975803;28;20492;-22
2022/06/08 06:28:31;;;;;;;1.55;1.45;;;;;;;19.07;63.31;100289.78;4965174;28;20089;-22
2022/06/08 06:30:56;;;;;;;2.28;1.48;;;;;;;19.14;63.08;100292.16;4975288;28;20042;-22
2022/06/08 06:33:21;;;;;;;1.70;1.60;;;;;;;19.24;63.14;100288.03;4973212;28;20380;-22
2022/06/08 06:35:47;;;;;;;2.80;1.92;;;;;;;19.30;63.05;100294.88;4981981;28;20109;-22
2022/06/08 06:38:12;;;;;;;1.67;1.50;;;;;;;19.41;63.24;100297.00;4979458;28;20027;-22
2022/06/08 06:40:38;;;;;;;1.65;1.55;;;;;;;19.52;63.01;100294.63;4979090;28;20114;-20
2022/06/08 06:43:04;;;;;;;1.70;1.55;;;;;;;19.60;63.34;100289.75;4977497;28;20057;-22
2022/06/08 06:45:29;;;;;;;2.60;2.30;;;;;;;19.69;63.01;100295.53;4981440;28;20054;-22
2022/06/08 06:47:55;;;;;;;2.15;1.95;;;;;;;19.75;62.80;100289.88;4967176;28;20066;-21
2022/06/08 06:50:21;;;;;;;2.10;2.00;;;;;;;19.77;62.79;100293.31;4980420;28;20041;-22
2022/06/08 06:52:47;;;;;;;1.83;1.67;;;;;;;19.81;62.44;100294.03;4965528;28;20121;-22
2022/06/08 06:55:22;;;;;;;1.75;1.65;;;;;;;19.81;62.66;100299.38;4964924;28;20129;-22
2022/06/08 06:57:48;;;;;;;1.95;1.83;;;;;;;19.83;62.39;100298.34;4956970;28;20030;-22
2022/06/08 07:00:14;;;;;;;1.88;1.77;;;;;;;19.88;62.30;100298.09;4940611;28;20048;-23
2022/06/08 07:02:39;;;;;;;1.83;1.73;;;;;;;19.85;62.18;100296.44;4976290;28;20045;-22
2022/06/08 07:05:05;;;;;;;2.60;1.75;;;;;;;19.87;62.16;100294.53;4983728;28;20105;-22
2022/06/08 07:07:31;;;;;;;3.28;1.75;;;;;;;19.90;61.94;100298.03;4979369;28;20034;-22
2022/06/08 07:09:56;;;;;;;2.55;1.80;;;;;;;19.91;61.97;100294.38;4979127;28;20493;-22
2022/06/08 07:12:21;;;;;;;2.17;1.90;;;;;;;19.96;62.12;100300.34;4978017;28;20081;-22
2022/06/08 07:14:47;;;;;;;2.15;1.75;;;;;;;20.03;61.88;100293.75;4978176;28;20026;-22
2022/06/08 07:17:12;;;;;;;1.98;1.88;;;;;;;20.07;62.06;100294.44;4977851;28;20136;-22
2022/06/08 07:19:38;;;;;;;1.95;1.85;;;;;;;20.10;61.88;100297.81;4984642;28;20019;-23
2022/06/08 07:22:03;;;;;;;1.85;1.75;;;;;;;20.10;61.93;100303.16;4967098;28;20041;-22
2022/06/08 07:24:33;;;;;;;2.20;2.10;;;;;;;20.15;61.95;100288.66;4978052;28;20022;-22
2022/06/08 07:27:02;;;;;;;1.90;1.80;;;;;;;20.24;61.79;100289.00;4970106;28;20030;-22
2022/06/08 07:29:28;;;;;;;1.95;1.85;;;;;;;20.33;61.38;100278.72;4980475;28;20137;-21
2022/06/08 07:31:53;;;;;;;2.25;2.15;;;;;;;20.37;61.25;100275.78;4973222;28;20029;-22
2022/06/08 07:34:19;;;;;;;2.88;2.05;;;;;;;20.43;61.24;100279.06;4975660;28;20041;-22
2022/06/08 07:36:45;;;;;;;1.90;1.80;;;;;;;20.46;61.31;100271.72;4977068;28;20022;-22
2022/06/08 07:39:12;;;;;;;2.38;1.92;;;;;;;20.58;60.93;100251.38;4977959;28;20034;-22
2022/06/08 07:41:37;;;;;;;2.45;2.00;;;;;;;20.67;61.04;100249.16;4960114;28;20061;-22
2022/06/08 07:44:03;;;;;;;1.60;1.50;;;;;;;20.72;61.11;100249.72;4983154;28;20066;-22
2022/06/08 07:46:29;;;;;;;2.10;2.00;;;;;;;20.86;61.11;100249.78;4976123;28;20034;-21
2022/06/08 07:51:39;;;;;;;2.40;1.90;;;;;;;21.12;60.11;100252.75;4981475;28;20471;-22
2022/06/08 07:54:04;;;;;;;1.88;1.70;;;;;;;21.24;59.60;100239.56;4957247;28;20058;-22
2022/06/08 07:56:30;;;;;;;1.73;1.50;;;;;;;21.29;59.60;100242.81;4979199;28;20145;-23
2022/06/08 07:58:55;;;;;;;1.95;1.85;;;;;;;21.32;59.73;100233.72;4980012;28;20027;-22
2022/06/08 08:01:20;;;;;;;1.80;1.70;;;;;;;21.45;59.45;100223.97;4966938;28;20035;-23
2022/06/08 08:03:45;;;;;;;1.90;1.80;;;;;;;21.53;59.71;100223.47;4984942;28;20142;-23
2022/06/08 08:06:11;;;;;;;1.70;1.60;;;;;;;21.61;59.73;100225.69;4976084;28;20034;-23
2022/06/08 08:08:38;;;;;;;1.70;1.60;;;;;;;21.73;59.67;100224.03;4977465;28;20153;-22
2022/06/08 08:11:05;;;;;;;4.65;1.50;;;;;;;21.75;59.47;100230.19;4976202;28;20449;-22
2022/06/08 08:13:30;;;;;;;1.50;1.40;;;;;;;21.95;58.59;100225.38;4979503;28;20045;-22
2022/06/08 08:15:55;;;;;;;1.40;1.30;;;;;;;22.04;58.49;100224.81;4977324;28;20401;-23
2022/06/08 08:18:21;;;;;;;1.40;1.30;;;;;;;22.13;57.91;100213.44;4978467;28;20867;-22
2022/06/08 08:20:46;;;;;;;1.50;1.33;;;;;;;22.20;58.11;100213.06;4979754;28;20112;-23
2022/06/08 08:23:11;;;;;;;2.83;1.60;;;;;;;22.32;57.88;100206.00;4984635;28;20030;-23
2022/06/08 08:25:37;;;;;;;2.17;1.80;;;;;;;22.39;58.15;100202.81;4985184;28;20038;-23
2022/06/08 08:28:03;;;;;;;1.20;1.10;;;;;;;22.51;57.69;100202.97;4983633;28;20031;-23
2022/06/08 08:30:29;;;;;;;1.08;1.05;;;;;;;22.60;57.44;100207.72;4985933;28;20066;-23
2022/06/08 08:32:56;;;;;;;1.13;1.13;;;;;;;22.67;57.42;100205.47;4980146;28;20063;-23
2022/06/08 08:35:23;;;;;;;1.42;1.33;;;;;;;22.76;57.04;100204.00;4979388;28;20026;-22
2022/06/08 08:37:48;;;;;;;1.60;1.15;;;;;;;22.84;57.33;100209.72;4988210;28;20034;-22
2022/06/08 08:40:51;;;;;;;1.90;1.20;;;;;;;22.99;57.23;100209.63;4985382;28;20030;-22
2022/06/08 08:43:21;;;;;;;1.38;1.27;;;;;;;23.09;57.23;100216.09;4983596;28;20345;-22
2022/06/08 08:45:51;;;;;;;1.50;1.23;;;;;;;23.18;56.89;100209.22;4969700;28;20041;-22
2022/06/08 08:48:33;;;;;;;1.30;1.20;;;;;;;23.25;56.71;100199.75;4959291;28;20030;-23
2022/06/08 08:51:12;;;;;;;1.65;1.15;;;;;;;23.38;56.76;100199.78;4969399;28;20234;-23
2022/06/08 08:53:43;;;;;;;1.00;1.00;;;;;;;23.52;56.10;100196.09;4970234;28;20619;-23
2022/06/08 08:56:18;;;;;;;1.48;1.38;;;;;;;23.66;55.92;100196.94;4965127;28;20089;-22
2022/06/08 08:58:47;;;;;;;1.20;1.20;;;;;;;23.82;54.28;100191.28;4983450;28;20023;-23
2022/06/08 09:01:23;;;;;;;1.23;1.20;;;;;;;23.95;54.13;100186.72;4980278;28;20072;-23
2022/06/08 09:03:58;;;;;;;1.30;1.20;;;;;;;23.95;54.28;100178.63;4979886;28;20022;-23
2022/06/08 09:06:27;;;;;;;1.50;1.30;;;;;;;24.03;54.23;100175.38;4964271;28;20026;-23
2022/06/08 09:08:54;;;;;;;2.15;1.30;;;;;;;24.07;54.16;100174.19;4982452;28;20029;-22
2022/06/08 09:11:24;;;;;;;1.05;1.00;;;;;;;24.28;53.58;100175.44;4973134;28;20030;-23
2022/06/08 09:14:17;;;;;;;1.20;0.98;;;;;;;24.42;52.10;100177.94;4980851;28;20042;-23
2022/06/08 09:16:46;;;;;;;1.60;0.98;;;;;;;24.39;53.22;100169.22;4981565;28;20588;-23
2022/06/08 09:19:21;;;;;;;1.00;0.90;;;;;;;24.50;53.28;100169.25;4979553;28;20077;-23
2022/06/08 09:21:47;;;;;;;0.80;0.80;;;;;;;24.58;53.31;100166.00;4984442;28;20109;-23
2022/06/08 09:24:16;;;;;;;1.17;1.08;;;;;;;24.76;52.12;100170.91;4980199;28;20022;-23
2022/06/08 09:26:41;;;;;;;0.90;0.90;;;;;;;24.83;51.35;100167.66;4980654;28;20019;-23
2022/06/08 09:29:20;;;;;;;1.00;1.00;;;;;;;24.93;50.99;100170.50;4964170;28;20028;-23
2022/06/08 09:31:47;;;;;;;0.73;0.73;;;;;;;25.04;50.51;100174.22;4975521;28;20417;-22
2022/06/08 09:34:30;;;;;;;0.90;0.90;;;;;;;25.06;50.35;100166.84;4977739;28;20081;-23
2022/06/08 09:37:14;;;;;;;1.05;1.02;;;;;;;25.08;50.20;100171.13;4954655;28;20092;-22
2022/06/08 09:39:42;;;;;;;1.48;1.15;;;;;;;25.20;48.87;100166.63;4968824;28;20030;-23
2022/06/08 09:42:17;;;;;;;1.30;0.80;;;;;;;25.21;49.46;100172.88;4980825;28;20095;-23
2022/06/08 09:44:52;;;;;;;1.63;0.95;;;;;;;25.20;50.01;100161.22;4978132;28;20034;-21
2022/06/08 09:53:21;;;;;;;1.15;1.05;;;;;;;25.34;50.75;100140.38;4977439;28;20036;-23
2022/06/08 09:55:50;;;;;;;0.90;0.90;;;;;;;25.44;52.42;100135.94;4960245;28;20033;-23
2022/06/08 09:58:21;;;;;;;1.20;0.70;;;;;;;25.61;49.77;100136.47;4977024;28;20030;-23
2022/06/08 10:00:56;;;;;;;1.35;0.80;;;;;;;25.74;48.76;100139.03;4981689;28;20027;-23
2022/06/08 10:03:50;;;;;;;1.10;1.00;;;;;;;25.72;48.41;100117.53;4980963;28;20026;-23
2022/06/08 10:06:18;;;;;;;1.02;0.85;;;;;;;25.71;48.98;100121.19;4977853;28;20045;-23
2022/06/08 10:09:04;;;;;;;0.80;0.80;;;;;;;25.82;48.63;100122.16;4974309;28;20031;-23
2022/06/08 10:11:41;;;;;;;0.65;0.65;;;;;;;25.94;48.54;100120.31;4966467;28;20035;-23
2022/06/08 10:14:16;;;;;;;1.05;0.90;;;;;;;26.05;47.25;100108.59;4966254;28;20034;-23
2022/06/08 10:16:46;;;;;;;0.77;0.75;;;;;;;26.12;45.96;100116.06;4979614;28;20381;-23
2022/06/08 10:19:17;;;;;;;0.65;0.65;;;;;;;26.07;46.20;100103.94;4968798;28;20057;-22
2022/06/08 10:21:44;;;;;;;0.93;0.93;;;;;;;26.10;47.08;100103.63;4972669;28;20026;-23
2022/06/08 10:24:16;;;;;;;0.77;0.77;;;;;;;26.13;46.84;100092.56;4977806;28;20026;-23
2022/06/08 10:26:48;;;;;;;0.70;0.70;;;;;;;26.13;47.60;100103.38;4963557;28;20531;-22
2022/06/08 10:29:43;;;;;;;1.67;0.90;;;;;;;26.30;46.99;100106.56;4978488;28;20045;-23
2022/06/08 10:32:19;;;;;;;0.82;0.82;;;;;;;26.32;46.55;100094.63;4977294;28;20085;-22
2022/06/08 10:34:44;;;;;;;0.90;0.73;;;;;;;26.37;47.00;100096.91;4966982;28;20026;-23
2022/06/08 10:37:20;;;;;;;0.90;0.90;;;;;;;26.42;47.06;100094.69;4962419;28;20081;-23
2022/06/08 10:39:47;;;;;;;0.90;0.90;;;;;;;26.42;46.90;100091.13;4981914;28;20502;-22
2022/06/08 10:42:39;;;;;;;0.82;0.82;;;;;;;26.51;47.57;100091.19;4966039;28;20069;-23
2022/06/08 10:45:19;;;;;;;0.80;0.80;;;;;;;26.68;46.19;100094.28;4979388;28;20022;-23
2022/06/08 10:47:44;;;;;;;;;;;;;;;26.71;44.55;100104.81;4979011;28;20105;-22
2022/06/08 10:50:16;;;;;;;2.58;0.80;;;;;;;26.70;45.30;100096.81;4976235;28;20024;-22
2022/06/08 10:52:45;;;;;;;0.93;0.82;;;;;;;26.67;45.80;100087.16;4983660;28;20037;-22
2022/06/08 10:55:14;;;;;;;2.33;1.10;;;;;;;26.65;45.73;100092.69;4977333;28;20030;-22
2022/06/08 10:57:50;;;;;;;1.08;0.90;;;;;;;26.61;46.18;100085.81;4976411;28;20030;-23
2022/06/08 11:00:22;;;;;;;1.15;1.02;;;;;;;26.61;45.54;100085.00;4981359;28;20022;-23
2022/06/08 11:03:21;;;;;;;1.30;0.73;;;;;;;26.60;45.94;100083.25;4976469;28;20077;-22
2022/06/08 11:05:48;;;;;;;0.70;0.70;;;;;;;26.63;45.57;100078.47;4969734;28;20405;-22
2022/06/08 11:08:19;;;;;;;0.93;0.93;;;;;;;26.72;45.91;100073.22;4980863;28;20532;-21
2022/06/08 11:10:45;;;;;;;1.95;0.90;;;;;;;26.87;43.67;100069.19;4977303;28;20085;-22
2022/06/08 11:13:38;;;;;;;1.05;0.90;;;;;;;26.86;44.79;100074.72;4982997;28;20034;-21
2022/06/08 11:16:27;;;;;;;0.70;0.70;;;;;;;26.85;45.48;100071.19;4972994;28;20034;-21
2022/06/08 11:19:01;;;;;;;1.60;0.88;;;;;;;26.88;45.28;100064.63;4974813;28;20026;-21
2022/06/08 11:21:57;;;;;;;1.00;0.90;;;;;;;26.90;44.69;100065.34;4977174;28;20034;-21
2022/06/08 11:24:34;;;;;;;1.83;1.00;;;;;;;26.85;45.71;100059.50;4968208;28;20030;-22
2022/06/08 11:27:09;;;;;;;1.13;1.02;;;;;;;26.84;46.70;100065.91;4982305;28;20038;-22
2022/06/08 11:29:34;;;;;;;0.80;0.70;;;;;;;26.83;46.00;100056.91;4985515;28;20085;-21
2022/06/08 11:32:00;;;;;;;0.90;0.90;;;;;;;26.85;44.54;100054.06;4978043;28;20477;-21
2022/06/08 11:34:43;;;;;;;1.13;0.80;;;;;;;26.80;45.54;100054.47;4968418;28;20030;-21
2022/06/08 11:37:18;;;;;;;0.82;0.82;;;;;;;26.72;45.94;100057.88;4969519;28;20060;-21
2022/06/08 11:40:12;;;;;;;0.80;0.80;;;;;;;26.69;45.55;100065.38;4961112;28;20034;-22
2022/06/08 11:42:51;;;;;;;0.90;0.90;;;;;;;26.61;45.99;100060.66;4958377;28;20027;-21
2022/06/08 11:45:21;;;;;;;1.05;1.05;;;;;;;26.57;45.66;100067.31;4968799;28;20025;-22
2022/06/08 11:47:48;;;;;;;1.45;1.00;;;;;;;26.46;44.51;100063.69;4967852;28;20053;-22
2022/06/08 11:50:18;;;;;;;0.88;0.88;;;;;;;26.39;44.61;100060.69;4980405;28;20057;-20
2022/06/08 11:52:46;;;;;;;1.40;0.80;;;;;;;26.32;45.68;100053.22;4979890;28;20029;-20